sensor_id;sensor_type;location;lat;lon;timestamp;P1;durP1;ratioP1;P2;durP2;ratioP2
20411;SDS011;10365;52.578;8.138;2023-04-06T00:02:07;7.43;;;3.65;;
20411;SDS011;10365;52.578;8.138;2023-04-06T00:04:32;8.80;;;3.97;;
20411;SDS011;10365;52.578;8.138;2023-04-06T00:06:57;6.50;;;4.07;;
20411;SDS011;10365;52.578;8.138;2023-04-06T00:09:23;11.23;;;3.58;;
20411;SDS011;10365;52.578;8.138;2023-04-06T00:11:48;7.53;;;3.78;;
20411;SDS011;10365;52.578;8.138;2023-04-06T00:14:14;6.40;;;3.78;;
20411;SDS011;10365;52.578;8.138;2023-04-06T00:16:41;4.57;;;3.45;;
20411;SDS011;10365;52.578;8.138;2023-04-06T00:19:07;6.05;;;3.72;;
20411;SDS011;10365;52.578;8.138;2023-04-06T00:21:32;7.35;;;3.90;;
20411;SDS011;10365;52.578;8.138;2023-04-06T00:23:58;8.60;;;3.92;;
20411;SDS011;10365;52.578;8.138;2023-04-06T00:26:23;5.82;;;3.28;;
20411;SDS011;10365;52.578;8.138;2023-04-06T00:28:49;5.40;;;3.75;;
20411;SDS011;10365;52.578;8.138;2023-04-06T00:31:16;5.43;;;3.53;;
20411;SDS011;10365;52.578;8.138;2023-04-06T00:33:42;6.57;;;4.13;;
20411;SDS011;10365;52.578;8.138;2023-04-06T00:36:07;6.25;;;3.95;;
20411;SDS011;10365;52.578;8.138;2023-04-06T00:38:33;6.47;;;3.40;;
20411;SDS011;10365;52.578;8.138;2023-04-06T00:40:58;7.32;;;3.90;;
20411;SDS011;10365;52.578;8.138;2023-04-06T00:43:24;9.15;;;3.97;;
20411;SDS011;10365;52.578;8.138;2023-04-06T00:45:49;5.10;;;3.28;;
20411;SDS011;10365;52.578;8.138;2023-04-06T00:48:15;8.38;;;4.20;;
20411;SDS011;10365;52.578;8.138;2023-04-06T00:50:41;7.45;;;4.13;;
20411;SDS011;10365;52.578;8.138;2023-04-06T00:53:07;8.45;;;4.30;;
20411;SDS011;10365;52.578;8.138;2023-04-06T00:55:32;7.95;;;3.58;;
20411;SDS011;10365;52.578;8.138;2023-04-06T00:57:59;5.80;;;3.63;;
20411;SDS011;10365;52.578;8.138;2023-04-06T01:00:26;5.45;;;3.83;;
20411;SDS011;10365;52.578;8.138;2023-04-06T01:02:56;6.88;;;3.83;;
20411;SDS011;10365;52.578;8.138;2023-04-06T01:05:29;5.88;;;3.88;;
20411;SDS011;10365;52.578;8.138;2023-04-06T01:07:57;14.25;;;4.28;;
20411;SDS011;10365;52.578;8.138;2023-04-06T01:10:26;7.32;;;4.35;;
20411;SDS011;10365;52.578;8.138;2023-04-06T01:12:59;7.13;;;4.32;;
20411;SDS011;10365;52.578;8.138;2023-04-06T01:15:41;8.68;;;3.72;;
20411;SDS011;10365;52.578;8.138;2023-04-06T01:18:09;6.78;;;3.92;;
20411;SDS011;10365;52.578;8.138;2023-04-06T01:20:45;6.43;;;3.70;;
20411;SDS011;10365;52.578;8.138;2023-04-06T01:23:12;5.45;;;3.83;;
20411;SDS011;10365;52.578;8.138;2023-04-06T01:25:43;6.80;;;4.20;;
20411;SDS011;10365;52.578;8.138;2023-04-06T01:28:08;7.22;;;3.75;;
20411;SDS011;10365;52.578;8.138;2023-04-06T01:31:04;7.95;;;3.78;;
20411;SDS011;10365;52.578;8.138;2023-04-06T01:33:43;11.15;;;4.15;;
20411;SDS011;10365;52.578;8.138;2023-04-06T01:36:12;6.63;;;4.07;;
20411;SDS011;10365;52.578;8.138;2023-04-06T01:38:38;7.95;;;3.95;;
20411;SDS011;10365;52.578;8.138;2023-04-06T01:41:04;7.40;;;3.80;;
20411;SDS011;10365;52.578;8.138;2023-04-06T01:43:39;9.00;;;3.90;;
20411;SDS011;10365;52.578;8.138;2023-04-06T01:46:07;9.93;;;4.00;;
20411;SDS011;10365;52.578;8.138;2023-04-06T01:48:35;7.70;;;3.95;;
20411;SDS011;10365;52.578;8.138;2023-04-06T01:51:10;9.35;;;3.75;;
20411;SDS011;10365;52.578;8.138;2023-04-06T01:53:44;6.40;;;4.00;;
20411;SDS011;10365;52.578;8.138;2023-04-06T01:56:09;7.47;;;3.70;;
20411;SDS011;10365;52.578;8.138;2023-04-06T01:58:44;9.95;;;4.68;;
20411;SDS011;10365;52.578;8.138;2023-04-06T02:01:12;5.47;;;4.00;;
20411;SDS011;10365;52.578;8.138;2023-04-06T02:03:49;6.80;;;4.53;;
20411;SDS011;10365;52.578;8.138;2023-04-06T02:06:15;9.35;;;3.92;;
20411;SDS011;10365;52.578;8.138;2023-04-06T02:08:41;9.07;;;4.60;;
20411;SDS011;10365;52.578;8.138;2023-04-06T02:11:06;8.48;;;4.25;;
20411;SDS011;10365;52.578;8.138;2023-04-06T02:13:38;9.32;;;4.53;;
20411;SDS011;10365;52.578;8.138;2023-04-06T02:16:04;8.32;;;4.60;;
20411;SDS011;10365;52.578;8.138;2023-04-06T02:18:30;9.45;;;5.43;;
20411;SDS011;10365;52.578;8.138;2023-04-06T02:20:56;8.85;;;4.55;;
20411;SDS011;10365;52.578;8.138;2023-04-06T02:23:21;11.35;;;4.85;;
20411;SDS011;10365;52.578;8.138;2023-04-06T02:25:47;8.50;;;4.45;;
20411;SDS011;10365;52.578;8.138;2023-04-06T02:28:12;8.50;;;5.00;;
20411;SDS011;10365;52.578;8.138;2023-04-06T02:30:37;7.70;;;4.15;;
20411;SDS011;10365;52.578;8.138;2023-04-06T02:33:03;8.55;;;4.65;;
20411;SDS011;10365;52.578;8.138;2023-04-06T02:35:37;7.40;;;4.82;;
20411;SDS011;10365;52.578;8.138;2023-04-06T02:38:03;11.23;;;5.35;;
20411;SDS011;10365;52.578;8.138;2023-04-06T02:40:28;8.88;;;4.47;;
20411;SDS011;10365;52.578;8.138;2023-04-06T02:42:56;10.55;;;5.30;;
20411;SDS011;10365;52.578;8.138;2023-04-06T02:45:27;8.95;;;4.88;;
20411;SDS011;10365;52.578;8.138;2023-04-06T02:47:54;8.98;;;4.95;;
20411;SDS011;10365;52.578;8.138;2023-04-06T02:50:20;8.30;;;5.03;;
20411;SDS011;10365;52.578;8.138;2023-04-06T02:52:53;12.15;;;5.10;;
20411;SDS011;10365;52.578;8.138;2023-04-06T02:55:18;12.15;;;5.47;;
20411;SDS011;10365;52.578;8.138;2023-04-06T02:57:45;11.52;;;6.05;;
20411;SDS011;10365;52.578;8.138;2023-04-06T03:00:11;10.13;;;5.70;;
20411;SDS011;10365;52.578;8.138;2023-04-06T03:02:41;8.80;;;5.40;;
20411;SDS011;10365;52.578;8.138;2023-04-06T03:05:18;10.35;;;5.68;;
20411;SDS011;10365;52.578;8.138;2023-04-06T03:07:46;13.63;;;6.03;;
20411;SDS011;10365;52.578;8.138;2023-04-06T03:10:44;11.25;;;6.68;;
20411;SDS011;10365;52.578;8.138;2023-04-06T03:13:11;9.65;;;5.93;;
20411;SDS011;10365;52.578;8.138;2023-04-06T03:15:57;9.77;;;5.93;;
20411;SDS011;10365;52.578;8.138;2023-04-06T03:18:26;11.30;;;5.85;;
20411;SDS011;10365;52.578;8.138;2023-04-06T03:20:59;8.93;;;5.38;;
20411;SDS011;10365;52.578;8.138;2023-04-06T03:23:45;9.90;;;5.57;;
20411;SDS011;10365;52.578;8.138;2023-04-06T03:26:11;13.23;;;6.35;;
20411;SDS011;10365;52.578;8.138;2023-04-06T03:28:37;10.35;;;5.82;;
20411;SDS011;10365;52.578;8.138;2023-04-06T03:31:04;11.23;;;6.25;;
20411;SDS011;10365;52.578;8.138;2023-04-06T03:33:42;9.82;;;5.20;;
20411;SDS011;10365;52.578;8.138;2023-04-06T03:36:12;10.18;;;6.07;;
20411;SDS011;10365;52.578;8.138;2023-04-06T03:38:41;12.40;;;6.40;;
20411;SDS011;10365;52.578;8.138;2023-04-06T03:41:10;11.32;;;6.35;;
20411;SDS011;10365;52.578;8.138;2023-04-06T03:43:37;14.32;;;6.28;;
20411;SDS011;10365;52.578;8.138;2023-04-06T03:46:03;12.23;;;6.82;;
20411;SDS011;10365;52.578;8.138;2023-04-06T03:48:28;9.93;;;6.30;;
20411;SDS011;10365;52.578;8.138;2023-04-06T03:50:54;15.63;;;6.93;;
20411;SDS011;10365;52.578;8.138;2023-04-06T03:53:19;13.55;;;7.65;;
20411;SDS011;10365;52.578;8.138;2023-04-06T03:55:45;13.93;;;7.43;;
20411;SDS011;10365;52.578;8.138;2023-04-06T03:58:10;18.15;;;7.68;;
20411;SDS011;10365;52.578;8.138;2023-04-06T04:00:35;15.23;;;8.80;;
20411;SDS011;10365;52.578;8.138;2023-04-06T04:03:01;18.63;;;8.70;;
20411;SDS011;10365;52.578;8.138;2023-04-06T04:05:27;13.75;;;7.85;;
20411;SDS011;10365;52.578;8.138;2023-04-06T04:07:53;20.45;;;8.93;;
20411;SDS011;10365;52.578;8.138;2023-04-06T04:10:22;16.08;;;8.25;;
20411;SDS011;10365;52.578;8.138;2023-04-06T04:12:48;14.30;;;8.80;;
20411;SDS011;10365;52.578;8.138;2023-04-06T04:15:13;16.38;;;8.90;;
20411;SDS011;10365;52.578;8.138;2023-04-06T04:17:38;17.20;;;8.10;;
20411;SDS011;10365;52.578;8.138;2023-04-06T04:20:04;15.85;;;8.63;;
20411;SDS011;10365;52.578;8.138;2023-04-06T04:22:30;16.35;;;8.52;;
20411;SDS011;10365;52.578;8.138;2023-04-06T04:24:55;15.82;;;8.27;;
20411;SDS011;10365;52.578;8.138;2023-04-06T04:27:21;17.45;;;8.32;;
20411;SDS011;10365;52.578;8.138;2023-04-06T04:29:48;13.00;;;8.05;;
20411;SDS011;10365;52.578;8.138;2023-04-06T04:32:15;14.13;;;8.25;;
20411;SDS011;10365;52.578;8.138;2023-04-06T04:34:45;13.02;;;7.82;;
20411;SDS011;10365;52.578;8.138;2023-04-06T04:37:29;17.77;;;9.45;;
20411;SDS011;10365;52.578;8.138;2023-04-06T04:39:59;13.25;;;8.55;;
20411;SDS011;10365;52.578;8.138;2023-04-06T04:42:28;17.20;;;8.20;;
20411;SDS011;10365;52.578;8.138;2023-04-06T04:44:56;14.55;;;8.10;;
20411;SDS011;10365;52.578;8.138;2023-04-06T04:47:34;14.70;;;8.50;;
20411;SDS011;10365;52.578;8.138;2023-04-06T04:50:00;18.17;;;8.27;;
20411;SDS011;10365;52.578;8.138;2023-04-06T04:52:25;18.85;;;8.65;;
20411;SDS011;10365;52.578;8.138;2023-04-06T04:55:13;18.75;;;9.15;;
20411;SDS011;10365;52.578;8.138;2023-04-06T04:57:41;17.73;;;8.93;;
20411;SDS011;10365;52.578;8.138;2023-04-06T05:00:06;15.25;;;8.90;;
20411;SDS011;10365;52.578;8.138;2023-04-06T05:02:34;21.58;;;9.07;;
20411;SDS011;10365;52.578;8.138;2023-04-06T05:05:13;24.13;;;10.15;;
20411;SDS011;10365;52.578;8.138;2023-04-06T05:07:39;19.98;;;10.15;;
20411;SDS011;10365;52.578;8.138;2023-04-06T05:10:09;21.60;;;10.65;;
20411;SDS011;10365;52.578;8.138;2023-04-06T05:12:42;19.98;;;10.30;;
20411;SDS011;10365;52.578;8.138;2023-04-06T05:15:09;31.52;;;11.48;;
20411;SDS011;10365;52.578;8.138;2023-04-06T05:17:36;21.48;;;11.48;;
20411;SDS011;10365;52.578;8.138;2023-04-06T05:20:02;23.52;;;10.50;;
20411;SDS011;10365;52.578;8.138;2023-04-06T05:22:31;19.60;;;10.35;;
20411;SDS011;10365;52.578;8.138;2023-04-06T05:25:06;22.40;;;10.25;;
20411;SDS011;10365;52.578;8.138;2023-04-06T05:27:32;20.02;;;10.80;;
20411;SDS011;10365;52.578;8.138;2023-04-06T05:30:02;21.85;;;11.02;;
20411;SDS011;10365;52.578;8.138;2023-04-06T05:32:32;18.23;;;10.98;;
20411;SDS011;10365;52.578;8.138;2023-04-06T05:34:58;19.63;;;10.27;;
20411;SDS011;10365;52.578;8.138;2023-04-06T05:37:24;18.77;;;10.13;;
20411;SDS011;10365;52.578;8.138;2023-04-06T05:39:49;18.60;;;10.68;;
20411;SDS011;10365;52.578;8.138;2023-04-06T05:42:15;23.05;;;10.70;;
20411;SDS011;10365;52.578;8.138;2023-04-06T05:44:51;20.92;;;11.05;;
20411;SDS011;10365;52.578;8.138;2023-04-06T05:47:17;24.40;;;11.30;;
20411;SDS011;10365;52.578;8.138;2023-04-06T05:49:48;25.60;;;10.52;;
20411;SDS011;10365;52.578;8.138;2023-04-06T05:52:21;32.28;;;14.48;;
20411;SDS011;10365;52.578;8.138;2023-04-06T05:54:48;21.35;;;12.30;;
20411;SDS011;10365;52.578;8.138;2023-04-06T05:57:14;26.40;;;13.52;;
20411;SDS011;10365;52.578;8.138;2023-04-06T05:59:39;30.52;;;13.73;;
20411;SDS011;10365;52.578;8.138;2023-04-06T06:02:05;23.38;;;12.43;;
20411;SDS011;10365;52.578;8.138;2023-04-06T06:04:35;26.20;;;12.65;;
20411;SDS011;10365;52.578;8.138;2023-04-06T06:07:01;19.63;;;11.45;;
20411;SDS011;10365;52.578;8.138;2023-04-06T06:09:33;20.10;;;10.85;;
20411;SDS011;10365;52.578;8.138;2023-04-06T06:12:13;22.08;;;11.32;;
20411;SDS011;10365;52.578;8.138;2023-04-06T06:14:38;18.95;;;9.52;;
20411;SDS011;10365;52.578;8.138;2023-04-06T06:17:05;20.35;;;10.90;;
20411;SDS011;10365;52.578;8.138;2023-04-06T06:19:30;17.90;;;10.27;;
20411;SDS011;10365;52.578;8.138;2023-04-06T06:22:00;19.02;;;10.90;;
20411;SDS011;10365;52.578;8.138;2023-04-06T06:24:28;15.55;;;9.15;;
20411;SDS011;10365;52.578;8.138;2023-04-06T06:26:53;19.20;;;9.55;;
20411;SDS011;10365;52.578;8.138;2023-04-06T06:29:22;13.10;;;8.48;;
20411;SDS011;10365;52.578;8.138;2023-04-06T06:31:49;12.93;;;7.70;;
20411;SDS011;10365;52.578;8.138;2023-04-06T06:34:15;15.02;;;7.30;;
20411;SDS011;10365;52.578;8.138;2023-04-06T06:36:41;15.48;;;6.45;;
20411;SDS011;10365;52.578;8.138;2023-04-06T06:39:09;10.18;;;6.07;;
20411;SDS011;10365;52.578;8.138;2023-04-06T06:41:35;10.15;;;6.18;;
20411;SDS011;10365;52.578;8.138;2023-04-06T06:44:01;12.30;;;5.95;;
20411;SDS011;10365;52.578;8.138;2023-04-06T06:46:28;11.70;;;6.10;;
20411;SDS011;10365;52.578;8.138;2023-04-06T06:48:53;14.20;;;6.55;;
20411;SDS011;10365;52.578;8.138;2023-04-06T06:51:19;10.02;;;6.00;;
20411;SDS011;10365;52.578;8.138;2023-04-06T06:53:44;11.90;;;6.07;;
20411;SDS011;10365;52.578;8.138;2023-04-06T06:56:10;13.93;;;6.35;;
20411;SDS011;10365;52.578;8.138;2023-04-06T06:58:37;14.35;;;6.00;;
20411;SDS011;10365;52.578;8.138;2023-04-06T07:01:02;8.05;;;5.07;;
20411;SDS011;10365;52.578;8.138;2023-04-06T07:03:30;10.40;;;5.53;;
20411;SDS011;10365;52.578;8.138;2023-04-06T07:05:56;13.70;;;5.90;;
20411;SDS011;10365;52.578;8.138;2023-04-06T07:08:23;10.02;;;5.60;;
20411;SDS011;10365;52.578;8.138;2023-04-06T07:10:52;10.07;;;5.32;;
20411;SDS011;10365;52.578;8.138;2023-04-06T07:13:18;8.52;;;5.03;;
20411;SDS011;10365;52.578;8.138;2023-04-06T07:15:49;13.10;;;6.30;;
20411;SDS011;10365;52.578;8.138;2023-04-06T07:18:15;9.85;;;5.75;;
20411;SDS011;10365;52.578;8.138;2023-04-06T07:20:41;9.35;;;5.80;;
20411;SDS011;10365;52.578;8.138;2023-04-06T07:23:07;12.10;;;5.60;;
20411;SDS011;10365;52.578;8.138;2023-04-06T07:25:32;10.10;;;5.43;;
20411;SDS011;10365;52.578;8.138;2023-04-06T07:27:58;7.88;;;5.30;;
20411;SDS011;10365;52.578;8.138;2023-04-06T07:30:24;9.70;;;5.50;;
20411;SDS011;10365;52.578;8.138;2023-04-06T07:32:53;11.07;;;5.53;;
20411;SDS011;10365;52.578;8.138;2023-04-06T07:35:21;8.90;;;5.45;;
20411;SDS011;10365;52.578;8.138;2023-04-06T07:37:47;8.75;;;6.07;;
20411;SDS011;10365;52.578;8.138;2023-04-06T07:40:12;11.20;;;5.93;;
20411;SDS011;10365;52.578;8.138;2023-04-06T07:42:39;10.38;;;6.25;;
20411;SDS011;10365;52.578;8.138;2023-04-06T07:45:06;10.63;;;6.88;;
20411;SDS011;10365;52.578;8.138;2023-04-06T07:47:32;14.10;;;7.10;;
20411;SDS011;10365;52.578;8.138;2023-04-06T07:49:59;12.70;;;7.00;;
20411;SDS011;10365;52.578;8.138;2023-04-06T07:52:25;13.63;;;7.28;;
20411;SDS011;10365;52.578;8.138;2023-04-06T07:54:50;13.23;;;7.15;;
20411;SDS011;10365;52.578;8.138;2023-04-06T07:57:16;12.70;;;7.40;;
20411;SDS011;10365;52.578;8.138;2023-04-06T07:59:41;9.43;;;7.50;;
20411;SDS011;10365;52.578;8.138;2023-04-06T08:02:07;12.40;;;6.95;;
20411;SDS011;10365;52.578;8.138;2023-04-06T08:04:32;10.05;;;7.10;;
20411;SDS011;10365;52.578;8.138;2023-04-06T08:06:58;10.52;;;7.10;;
20411;SDS011;10365;52.578;8.138;2023-04-06T08:09:24;15.80;;;7.90;;
20411;SDS011;10365;52.578;8.138;2023-04-06T08:11:49;13.25;;;7.32;;
20411;SDS011;10365;52.578;8.138;2023-04-06T08:14:15;12.52;;;7.30;;
20411;SDS011;10365;52.578;8.138;2023-04-06T08:16:41;12.43;;;7.97;;
20411;SDS011;10365;52.578;8.138;2023-04-06T08:19:07;10.88;;;7.85;;
20411;SDS011;10365;52.578;8.138;2023-04-06T08:21:34;13.73;;;7.70;;
20411;SDS011;10365;52.578;8.138;2023-04-06T08:24:00;11.73;;;7.53;;
20411;SDS011;10365;52.578;8.138;2023-04-06T08:26:25;10.73;;;7.97;;
20411;SDS011;10365;52.578;8.138;2023-04-06T08:28:51;16.02;;;7.80;;
20411;SDS011;10365;52.578;8.138;2023-04-06T08:31:16;11.75;;;8.38;;
20411;SDS011;10365;52.578;8.138;2023-04-06T08:33:42;12.32;;;7.70;;
20411;SDS011;10365;52.578;8.138;2023-04-06T08:36:11;10.07;;;7.72;;
20411;SDS011;10365;52.578;8.138;2023-04-06T08:38:37;14.38;;;8.98;;
20411;SDS011;10365;52.578;8.138;2023-04-06T08:41:07;12.23;;;7.97;;
20411;SDS011;10365;52.578;8.138;2023-04-06T08:43:32;13.13;;;8.98;;
20411;SDS011;10365;52.578;8.138;2023-04-06T08:45:59;11.52;;;8.15;;
20411;SDS011;10365;52.578;8.138;2023-04-06T08:48:27;14.52;;;8.27;;
20411;SDS011;10365;52.578;8.138;2023-04-06T08:50:53;13.57;;;8.90;;
20411;SDS011;10365;52.578;8.138;2023-04-06T08:53:20;13.48;;;9.25;;
20411;SDS011;10365;52.578;8.138;2023-04-06T08:55:45;15.30;;;8.98;;
20411;SDS011;10365;52.578;8.138;2023-04-06T08:58:11;14.20;;;8.60;;
20411;SDS011;10365;52.578;8.138;2023-04-06T09:00:38;15.27;;;9.20;;
20411;SDS011;10365;52.578;8.138;2023-04-06T09:03:03;16.38;;;8.80;;
20411;SDS011;10365;52.578;8.138;2023-04-06T09:05:30;14.15;;;8.98;;
20411;SDS011;10365;52.578;8.138;2023-04-06T09:07:55;12.82;;;9.23;;
20411;SDS011;10365;52.578;8.138;2023-04-06T09:10:21;14.73;;;9.32;;
20411;SDS011;10365;52.578;8.138;2023-04-06T09:12:48;16.88;;;9.65;;
20411;SDS011;10365;52.578;8.138;2023-04-06T09:15:17;15.23;;;9.52;;
20411;SDS011;10365;52.578;8.138;2023-04-06T09:17:43;13.32;;;8.80;;
20411;SDS011;10365;52.578;8.138;2023-04-06T09:20:09;13.80;;;10.18;;
20411;SDS011;10365;52.578;8.138;2023-04-06T09:22:38;12.05;;;9.05;;
20411;SDS011;10365;52.578;8.138;2023-04-06T09:25:04;15.45;;;10.05;;
20411;SDS011;10365;52.578;8.138;2023-04-06T09:27:30;14.45;;;9.57;;
20411;SDS011;10365;52.578;8.138;2023-04-06T09:30:03;16.55;;;10.10;;
20411;SDS011;10365;52.578;8.138;2023-04-06T09:32:28;15.57;;;10.27;;
20411;SDS011;10365;52.578;8.138;2023-04-06T09:34:54;14.18;;;9.52;;
20411;SDS011;10365;52.578;8.138;2023-04-06T09:37:30;14.38;;;9.70;;
20411;SDS011;10365;52.578;8.138;2023-04-06T09:40:01;16.52;;;10.25;;
20411;SDS011;10365;52.578;8.138;2023-04-06T09:42:27;15.70;;;10.48;;
20411;SDS011;10365;52.578;8.138;2023-04-06T09:44:52;17.02;;;11.40;;
20411;SDS011;10365;52.578;8.138;2023-04-06T09:47:18;15.60;;;11.65;;
20411;SDS011;10365;52.578;8.138;2023-04-06T09:49:44;18.25;;;10.48;;
20411;SDS011;10365;52.578;8.138;2023-04-06T09:52:10;15.18;;;11.35;;
20411;SDS011;10365;52.578;8.138;2023-04-06T09:54:36;14.85;;;9.88;;
20411;SDS011;10365;52.578;8.138;2023-04-06T09:57:21;15.20;;;11.10;;
20411;SDS011;10365;52.578;8.138;2023-04-06T10:02:20;15.50;;;11.55;;
20411;SDS011;10365;52.578;8.138;2023-04-06T10:05:12;14.98;;;11.25;;
20411;SDS011;10365;52.578;8.138;2023-04-06T10:07:34;17.35;;;12.15;;
20411;SDS011;10365;52.578;8.138;2023-04-06T10:10:00;19.90;;;12.30;;
20411;SDS011;10365;52.578;8.138;2023-04-06T10:12:27;23.83;;;13.50;;
20411;SDS011;10365;52.578;8.138;2023-04-06T10:14:52;20.27;;;14.43;;
20411;SDS011;10365;52.578;8.138;2023-04-06T10:17:18;22.05;;;13.73;;
20411;SDS011;10365;52.578;8.138;2023-04-06T10:19:49;21.05;;;14.20;;
20411;SDS011;10365;52.578;8.138;2023-04-06T10:22:18;17.88;;;12.80;;
20411;SDS011;10365;52.578;8.138;2023-04-06T10:24:48;22.35;;;14.10;;
20411;SDS011;10365;52.578;8.138;2023-04-06T10:27:13;19.88;;;13.85;;
20411;SDS011;10365;52.578;8.138;2023-04-06T10:29:45;18.48;;;14.20;;
20411;SDS011;10365;52.578;8.138;2023-04-06T10:32:11;24.85;;;14.77;;
20411;SDS011;10365;52.578;8.138;2023-04-06T10:34:37;18.05;;;13.20;;
20411;SDS011;10365;52.578;8.138;2023-04-06T10:37:15;21.60;;;14.00;;
20411;SDS011;10365;52.578;8.138;2023-04-06T10:39:53;20.67;;;13.57;;
20411;SDS011;10365;52.578;8.138;2023-04-06T10:42:25;20.92;;;13.07;;
20411;SDS011;10365;52.578;8.138;2023-04-06T10:44:51;22.40;;;14.02;;
20411;SDS011;10365;52.578;8.138;2023-04-06T10:47:17;21.70;;;13.23;;
20411;SDS011;10365;52.578;8.138;2023-04-06T10:49:45;24.42;;;12.88;;
20411;SDS011;10365;52.578;8.138;2023-04-06T10:52:10;19.15;;;12.73;;
20411;SDS011;10365;52.578;8.138;2023-04-06T10:54:38;20.15;;;12.32;;
20411;SDS011;10365;52.578;8.138;2023-04-06T10:57:06;20.42;;;12.65;;
20411;SDS011;10365;52.578;8.138;2023-04-06T10:59:31;16.83;;;12.65;;
20411;SDS011;10365;52.578;8.138;2023-04-06T11:01:56;21.98;;;13.38;;
20411;SDS011;10365;52.578;8.138;2023-04-06T11:04:22;21.27;;;12.63;;
20411;SDS011;10365;52.578;8.138;2023-04-06T11:06:49;17.10;;;12.48;;
20411;SDS011;10365;52.578;8.138;2023-04-06T11:09:28;18.50;;;12.63;;
20411;SDS011;10365;52.578;8.138;2023-04-06T11:11:53;16.85;;;12.05;;
20411;SDS011;10365;52.578;8.138;2023-04-06T11:14:20;22.40;;;11.95;;
20411;SDS011;10365;52.578;8.138;2023-04-06T11:16:46;16.08;;;11.48;;
20411;SDS011;10365;52.578;8.138;2023-04-06T11:19:11;17.77;;;11.75;;
20411;SDS011;10365;52.578;8.138;2023-04-06T11:21:39;18.95;;;12.88;;
20411;SDS011;10365;52.578;8.138;2023-04-06T11:26:36;19.83;;;11.48;;
20411;SDS011;10365;52.578;8.138;2023-04-06T11:29:01;17.98;;;12.32;;
20411;SDS011;10365;52.578;8.138;2023-04-06T11:31:27;17.23;;;11.52;;
20411;SDS011;10365;52.578;8.138;2023-04-06T11:33:58;15.82;;;11.65;;
20411;SDS011;10365;52.578;8.138;2023-04-06T11:36:26;16.10;;;11.55;;
20411;SDS011;10365;52.578;8.138;2023-04-06T11:38:52;16.80;;;11.02;;
20411;SDS011;10365;52.578;8.138;2023-04-06T11:41:17;19.00;;;11.90;;
20411;SDS011;10365;52.578;8.138;2023-04-06T11:43:47;16.17;;;11.43;;
20411;SDS011;10365;52.578;8.138;2023-04-06T11:46:16;17.88;;;11.35;;
20411;SDS011;10365;52.578;8.138;2023-04-06T11:48:45;16.33;;;10.98;;
20411;SDS011;10365;52.578;8.138;2023-04-06T11:51:11;14.65;;;10.07;;
20411;SDS011;10365;52.578;8.138;2023-04-06T11:53:46;17.58;;;11.48;;
20411;SDS011;10365;52.578;8.138;2023-04-06T11:56:11;17.83;;;12.23;;
20411;SDS011;10365;52.578;8.138;2023-04-06T11:58:36;18.17;;;11.35;;
20411;SDS011;10365;52.578;8.138;2023-04-06T12:01:05;16.83;;;12.15;;
20411;SDS011;10365;52.578;8.138;2023-04-06T12:03:30;16.48;;;11.30;;
20411;SDS011;10365;52.578;8.138;2023-04-06T12:05:56;17.80;;;11.50;;
20411;SDS011;10365;52.578;8.138;2023-04-06T12:08:21;18.75;;;11.63;;
20411;SDS011;10365;52.578;8.138;2023-04-06T12:10:50;17.13;;;11.10;;
20411;SDS011;10365;52.578;8.138;2023-04-06T12:13:16;16.67;;;11.70;;
20411;SDS011;10365;52.578;8.138;2023-04-06T12:15:42;18.27;;;12.20;;
20411;SDS011;10365;52.578;8.138;2023-04-06T12:18:07;15.68;;;11.00;;
20411;SDS011;10365;52.578;8.138;2023-04-06T12:20:33;21.90;;;11.38;;
20411;SDS011;10365;52.578;8.138;2023-04-06T12:22:58;17.85;;;11.60;;
20411;SDS011;10365;52.578;8.138;2023-04-06T12:25:23;16.33;;;10.88;;
20411;SDS011;10365;52.578;8.138;2023-04-06T12:27:49;17.40;;;10.68;;
20411;SDS011;10365;52.578;8.138;2023-04-06T12:30:15;17.98;;;12.32;;
20411;SDS011;10365;52.578;8.138;2023-04-06T12:32:40;18.90;;;12.07;;
20411;SDS011;10365;52.578;8.138;2023-04-06T12:35:06;18.77;;;12.32;;
20411;SDS011;10365;52.578;8.138;2023-04-06T12:37:34;17.30;;;11.90;;
20411;SDS011;10365;52.578;8.138;2023-04-06T12:39:59;15.65;;;10.70;;
20411;SDS011;10365;52.578;8.138;2023-04-06T12:42:25;19.02;;;10.63;;
20411;SDS011;10365;52.578;8.138;2023-04-06T12:44:51;16.55;;;9.98;;
20411;SDS011;10365;52.578;8.138;2023-04-06T12:47:17;17.75;;;11.45;;
20411;SDS011;10365;52.578;8.138;2023-04-06T12:49:43;15.10;;;10.98;;
20411;SDS011;10365;52.578;8.138;2023-04-06T12:52:09;14.00;;;10.20;;
20411;SDS011;10365;52.578;8.138;2023-04-06T12:54:34;16.45;;;10.55;;
20411;SDS011;10365;52.578;8.138;2023-04-06T12:57:00;16.30;;;11.38;;
20411;SDS011;10365;52.578;8.138;2023-04-06T12:59:26;15.20;;;9.68;;
20411;SDS011;10365;52.578;8.138;2023-04-06T13:01:52;18.42;;;10.80;;
20411;SDS011;10365;52.578;8.138;2023-04-06T13:04:17;17.25;;;10.02;;
20411;SDS011;10365;52.578;8.138;2023-04-06T13:06:43;16.27;;;10.10;;
20411;SDS011;10365;52.578;8.138;2023-04-06T13:09:08;16.45;;;10.07;;
20411;SDS011;10365;52.578;8.138;2023-04-06T13:11:34;16.45;;;10.20;;
20411;SDS011;10365;52.578;8.138;2023-04-06T13:14:00;14.93;;;9.40;;
20411;SDS011;10365;52.578;8.138;2023-04-06T13:16:25;13.00;;;9.43;;
20411;SDS011;10365;52.578;8.138;2023-04-06T13:18:50;15.80;;;10.63;;
20411;SDS011;10365;52.578;8.138;2023-04-06T13:21:16;22.70;;;10.52;;
20411;SDS011;10365;52.578;8.138;2023-04-06T13:23:41;14.40;;;10.38;;
20411;SDS011;10365;52.578;8.138;2023-04-06T13:26:07;16.65;;;10.98;;
20411;SDS011;10365;52.578;8.138;2023-04-06T13:28:34;16.02;;;10.27;;
20411;SDS011;10365;52.578;8.138;2023-04-06T13:31:00;16.13;;;10.52;;
20411;SDS011;10365;52.578;8.138;2023-04-06T13:33:27;16.85;;;9.98;;
20411;SDS011;10365;52.578;8.138;2023-04-06T13:35:52;14.85;;;9.98;;
20411;SDS011;10365;52.578;8.138;2023-04-06T13:38:17;14.77;;;9.98;;
20411;SDS011;10365;52.578;8.138;2023-04-06T13:40:43;17.80;;;10.70;;
20411;SDS011;10365;52.578;8.138;2023-04-06T13:43:09;17.42;;;10.90;;
20411;SDS011;10365;52.578;8.138;2023-04-06T13:45:34;17.58;;;10.65;;
20411;SDS011;10365;52.578;8.138;2023-04-06T13:48:00;19.17;;;11.18;;
20411;SDS011;10365;52.578;8.138;2023-04-06T13:50:26;21.50;;;11.73;;
20411;SDS011;10365;52.578;8.138;2023-04-06T13:52:51;15.43;;;10.52;;
20411;SDS011;10365;52.578;8.138;2023-04-06T13:55:17;18.13;;;11.93;;
20411;SDS011;10365;52.578;8.138;2023-04-06T13:57:42;16.00;;;11.00;;
20411;SDS011;10365;52.578;8.138;2023-04-06T14:00:08;19.00;;;12.05;;
20411;SDS011;10365;52.578;8.138;2023-04-06T14:02:34;16.42;;;10.68;;
20411;SDS011;10365;52.578;8.138;2023-04-06T14:05:00;17.83;;;11.30;;
20411;SDS011;10365;52.578;8.138;2023-04-06T14:07:25;17.20;;;10.80;;
20411;SDS011;10365;52.578;8.138;2023-04-06T14:09:51;15.90;;;10.25;;
20411;SDS011;10365;52.578;8.138;2023-04-06T14:12:16;15.90;;;10.75;;
20411;SDS011;10365;52.578;8.138;2023-04-06T14:14:41;15.85;;;9.85;;
20411;SDS011;10365;52.578;8.138;2023-04-06T14:17:07;17.42;;;9.38;;
20411;SDS011;10365;52.578;8.138;2023-04-06T14:19:33;13.65;;;9.20;;
20411;SDS011;10365;52.578;8.138;2023-04-06T14:21:59;13.82;;;9.45;;
20411;SDS011;10365;52.578;8.138;2023-04-06T14:24:25;16.88;;;10.65;;
20411;SDS011;10365;52.578;8.138;2023-04-06T14:26:50;14.50;;;9.93;;
20411;SDS011;10365;52.578;8.138;2023-04-06T14:29:16;16.10;;;10.85;;
20411;SDS011;10365;52.578;8.138;2023-04-06T14:31:41;15.60;;;9.40;;
20411;SDS011;10365;52.578;8.138;2023-04-06T14:34:07;15.25;;;10.73;;
20411;SDS011;10365;52.578;8.138;2023-04-06T14:36:33;16.70;;;10.45;;
20411;SDS011;10365;52.578;8.138;2023-04-06T14:39:03;16.85;;;10.23;;
20411;SDS011;10365;52.578;8.138;2023-04-06T14:41:30;16.95;;;11.05;;